createdAt,value
2018-07-26T00:00:28.777Z,99.90
2018-07-26T00:02:58.243Z,99.90
2018-07-26T00:05:27.936Z,99.90
2018-07-26T00:07:57.392Z,99.90
2018-07-26T00:12:55.833Z,99.90
2018-07-26T00:15:25.412Z,99.90
2018-07-26T00:17:55.064Z,99.90
2018-07-26T00:20:24.739Z,99.90
2018-07-26T00:22:54.222Z,99.90
2018-07-26T00:25:23.548Z,99.90
2018-07-26T00:27:53.033Z,99.90
2018-07-26T00:30:22.528Z,99.90
2018-07-26T00:32:52.148Z,99.90
2018-07-26T00:35:21.634Z,99.90
2018-07-26T00:37:51.159Z,99.90
2018-07-26T00:40:20.467Z,99.90
2018-07-26T00:42:49.971Z,99.90
2018-07-26T00:45:19.376Z,99.90
2018-07-26T00:47:48.634Z,99.90
2018-07-26T00:50:18.365Z,99.90
2018-07-26T00:52:47.896Z,99.90
2018-07-26T00:55:17.209Z,99.90
2018-07-26T00:57:46.611Z,99.90
2018-07-26T01:00:16.044Z,99.90
2018-07-26T01:02:45.354Z,99.90
2018-07-26T01:05:14.590Z,99.90
2018-07-26T01:07:44.272Z,99.90
2018-07-26T01:10:13.564Z,99.90
2018-07-26T01:12:43.330Z,99.90
2018-07-26T01:15:12.789Z,99.90
2018-07-26T01:17:42.104Z,99.90
2018-07-26T01:20:11.936Z,99.90
2018-07-26T01:22:41.191Z,99.90
2018-07-26T01:25:10.616Z,99.90
2018-07-26T01:27:39.977Z,99.90
2018-07-26T01:30:09.519Z,99.90
2018-07-26T01:32:39.131Z,99.90
2018-07-26T01:35:09.073Z,99.90
2018-07-26T01:37:38.448Z,99.90
2018-07-26T01:40:07.886Z,99.90
2018-07-26T01:43:48.022Z,99.90
2018-07-26T01:46:18.851Z,99.90
2018-07-26T01:48:48.284Z,99.90
2018-07-26T01:51:17.856Z,99.90
2018-07-26T01:53:47.403Z,99.90
2018-07-26T01:56:16.777Z,99.90
2018-07-26T01:58:46.115Z,99.90
2018-07-26T02:01:15.639Z,99.90
2018-07-26T02:03:44.983Z,99.90
2018-07-26T02:06:14.356Z,99.90
2018-07-26T02:08:43.692Z,99.90
2018-07-26T02:11:13.615Z,99.90
2018-07-26T02:13:42.953Z,99.90
2018-07-26T02:16:12.500Z,99.90
2018-07-26T02:18:41.884Z,99.90
2018-07-26T02:21:11.532Z,99.90
2018-07-26T02:23:40.942Z,99.90
2018-07-26T02:26:11.136Z,99.90
2018-07-26T02:28:40.757Z,99.90
2018-07-26T02:31:10.676Z,99.90
2018-07-26T02:33:39.809Z,99.90
2018-07-26T02:36:09.349Z,99.90
2018-07-26T02:38:38.915Z,99.90
2018-07-26T02:41:08.490Z,99.90
2018-07-26T02:43:37.742Z,99.90
2018-07-26T02:46:07.591Z,99.90
2018-07-26T02:48:36.840Z,99.90
2018-07-26T02:51:06.236Z,99.90
2018-07-26T02:53:35.541Z,99.90
2018-07-26T02:56:05.017Z,99.90
2018-07-26T02:58:34.583Z,99.90
2018-07-26T03:01:04.409Z,99.90
2018-07-26T03:03:33.695Z,99.90
2018-07-26T03:06:03.068Z,99.90
2018-07-26T03:08:32.386Z,99.90
2018-07-26T03:11:01.936Z,99.90
2018-07-26T03:13:31.401Z,99.90
2018-07-26T03:16:00.717Z,99.90
2018-07-26T03:18:30.188Z,99.90
2018-07-26T03:20:59.506Z,99.90
2018-07-26T03:23:28.748Z,99.90
2018-07-26T03:25:58.123Z,99.90
2018-07-26T03:28:27.408Z,99.90
2018-07-26T03:30:56.820Z,99.90
2018-07-26T03:33:26.121Z,99.90
2018-07-26T03:35:55.461Z,99.90
2018-07-26T03:38:24.727Z,99.90
2018-07-26T03:40:54.073Z,99.90
2018-07-26T03:43:23.437Z,99.90
2018-07-26T03:45:52.843Z,99.90
2018-07-26T03:48:22.921Z,99.90
2018-07-26T03:50:52.410Z,99.90
2018-07-26T03:53:21.623Z,99.90
2018-07-26T03:55:50.872Z,99.90
2018-07-26T03:58:20.368Z,99.90
2018-07-26T04:00:49.557Z,99.90
2018-07-26T04:03:20.044Z,99.90
2018-07-26T04:05:49.386Z,99.90
2018-07-26T04:08:18.687Z,99.90
2018-07-26T04:10:47.898Z,99.90
2018-07-26T04:13:17.158Z,99.90
2018-07-26T04:15:46.545Z,99.90
2018-07-26T04:18:15.924Z,99.90
2018-07-26T04:20:45.235Z,99.90
2018-07-26T04:23:14.448Z,99.90
2018-07-26T04:25:44.084Z,99.90
2018-07-26T04:28:13.296Z,99.90
2018-07-26T04:30:42.979Z,99.90
2018-07-26T04:33:12.476Z,99.90
2018-07-26T04:35:42.083Z,99.90
2018-07-26T04:38:11.620Z,99.90
2018-07-26T04:40:40.954Z,99.90
2018-07-26T04:43:10.292Z,99.90
2018-07-26T04:45:40.123Z,99.90
2018-07-26T04:48:09.750Z,99.90
2018-07-26T04:50:39.629Z,99.90
2018-07-26T04:53:08.974Z,99.90
2018-07-26T04:55:38.346Z,99.90
2018-07-26T04:58:07.707Z,99.90
2018-07-26T05:00:37.192Z,99.90
2018-07-26T05:03:06.826Z,99.90
2018-07-26T05:05:36.240Z,99.90
2018-07-26T05:10:34.686Z,99.90
2018-07-26T05:13:04.285Z,99.90
2018-07-26T05:15:33.895Z,99.90
2018-07-26T05:18:03.538Z,99.90
2018-07-26T05:20:32.895Z,99.90
2018-07-26T05:23:02.108Z,99.90
2018-07-26T05:25:31.428Z,99.90
2018-07-26T05:28:01.048Z,99.90
2018-07-26T05:30:30.479Z,99.90
2018-07-26T05:32:59.723Z,99.90
2018-07-26T05:35:29.017Z,99.90
2018-07-26T05:37:58.295Z,99.90
2018-07-26T05:40:27.735Z,99.90
2018-07-26T05:42:57.077Z,99.90
2018-07-26T05:45:26.571Z,99.90
2018-07-26T05:47:55.923Z,99.90
2018-07-26T05:50:25.196Z,97.10
2018-07-26T05:52:54.481Z,97.10
2018-07-26T05:55:23.979Z,95.40
2018-07-26T05:57:53.415Z,95.40
2018-07-26T06:00:22.921Z,93.00
2018-07-26T06:02:52.195Z,93.80
2018-07-26T06:05:21.565Z,94.00
2018-07-26T06:07:50.954Z,93.10
2018-07-26T06:10:20.460Z,91.50
2018-07-26T06:12:49.807Z,92.10
2018-07-26T06:15:20.007Z,92.70
2018-07-26T06:17:49.330Z,92.90
2018-07-26T06:20:18.640Z,94.20
2018-07-26T06:22:48.006Z,93.20
2018-07-26T06:25:17.312Z,96.10
2018-07-26T06:30:16.530Z,95.70
2018-07-26T06:32:45.775Z,94.30
2018-07-26T06:35:15.023Z,92.70
2018-07-26T06:37:44.200Z,91.60
2018-07-26T06:40:13.467Z,90.20
2018-07-26T06:42:42.640Z,84.80
2018-07-26T06:45:11.890Z,84.60
2018-07-26T06:47:41.157Z,79.30
2018-07-26T06:50:11.883Z,78.40
2018-07-26T06:52:41.783Z,79.70
2018-07-26T06:55:11.284Z,77.50
2018-07-26T06:57:40.506Z,71.50
2018-07-26T07:00:10.698Z,72.90
2018-07-26T07:02:40.288Z,66.50
2018-07-26T07:05:10.235Z,65.70
2018-07-26T07:07:40.172Z,68.30
2018-07-26T07:10:09.583Z,66.70
2018-07-26T07:12:38.988Z,64.60
2018-07-26T07:15:08.520Z,61.70
2018-07-26T07:17:37.832Z,62.90
2018-07-26T07:20:07.945Z,62.50
2018-07-26T07:22:37.484Z,62.20
2018-07-26T07:25:07.340Z,58.90
2018-07-26T07:27:36.549Z,59.30
2018-07-26T07:30:08.468Z,56.90
2018-07-26T07:32:37.835Z,55.80
2018-07-26T07:35:07.288Z,55.30
2018-07-26T07:37:37.143Z,54.30
2018-07-26T07:40:06.688Z,52.50
2018-07-26T07:42:35.945Z,53.80
2018-07-26T07:45:06.325Z,52.10
2018-07-26T07:47:35.662Z,52.90
2018-07-26T07:50:05.853Z,52.90
2018-07-26T07:52:35.323Z,53.60
2018-07-26T07:55:04.921Z,53.80
2018-07-26T07:57:34.171Z,53.20
2018-07-26T08:00:03.654Z,53.80
2018-07-26T08:02:33.085Z,52.10
2018-07-26T08:05:02.593Z,54.10
2018-07-26T08:07:32.099Z,52.40
2018-07-26T08:10:01.896Z,52.90
2018-07-26T08:12:31.135Z,51.60
2018-07-26T08:15:00.387Z,52.40
2018-07-26T08:17:29.664Z,51.00
2018-07-26T08:19:58.962Z,53.00
2018-07-26T08:22:28.187Z,52.50
2018-07-26T08:24:57.420Z,52.00
2018-07-26T08:27:26.767Z,51.40
2018-07-26T08:29:56.018Z,51.50
2018-07-26T08:32:25.385Z,51.20
2018-07-26T08:34:54.831Z,51.50
2018-07-26T08:37:24.169Z,50.90
2018-07-26T08:39:53.448Z,49.70
2018-07-26T08:42:22.799Z,49.20
2018-07-26T08:44:52.340Z,48.00
2018-07-26T08:47:21.839Z,48.30
2018-07-26T08:49:51.060Z,48.30
2018-07-26T08:52:20.605Z,46.60
2018-07-26T08:54:50.097Z,48.80
2018-07-26T08:57:19.620Z,44.20
2018-07-26T08:59:48.968Z,45.00
2018-07-26T09:02:18.344Z,44.60
2018-07-26T09:04:48.032Z,45.10
2018-07-26T09:07:17.284Z,45.70
2018-07-26T09:09:46.530Z,46.00
2018-07-26T09:12:15.983Z,43.80
2018-07-26T09:14:45.381Z,43.50
2018-07-26T09:17:14.743Z,41.90
2018-07-26T09:19:45.422Z,40.60
2018-07-26T09:24:43.484Z,40.20
2018-07-26T09:27:13.619Z,41.50
2018-07-26T09:29:42.920Z,40.30
2018-07-26T09:32:12.249Z,39.90
2018-07-26T09:34:41.440Z,40.80
2018-07-26T09:37:10.691Z,38.30
2018-07-26T09:39:39.979Z,38.70
2018-07-26T09:42:09.309Z,38.00
2018-07-26T09:44:38.672Z,36.40
2018-07-26T09:47:08.219Z,36.40
2018-07-26T09:49:37.450Z,35.50
2018-07-26T09:52:06.753Z,35.40
2018-07-26T09:54:36.028Z,34.40
2018-07-26T09:57:05.350Z,35.80
2018-07-26T09:59:34.710Z,34.60
2018-07-26T10:02:04.041Z,35.40
2018-07-26T10:04:33.381Z,35.80
2018-07-26T10:07:02.660Z,36.20
2018-07-26T10:09:32.083Z,35.40
2018-07-26T10:12:01.390Z,35.50
2018-07-26T10:14:30.673Z,36.90
2018-07-26T10:16:59.932Z,36.30
2018-07-26T10:19:29.100Z,36.70
2018-07-26T10:21:58.419Z,37.00
2018-07-26T10:24:27.588Z,37.40
2018-07-26T10:26:56.827Z,38.90
2018-07-26T10:29:26.191Z,39.70
2018-07-26T10:31:55.492Z,38.30
2018-07-26T10:34:24.868Z,39.10
2018-07-26T10:36:54.285Z,39.80
2018-07-26T10:39:23.652Z,39.50
2018-07-26T10:41:53.027Z,39.70
2018-07-26T10:44:22.822Z,39.00
2018-07-26T10:46:52.059Z,40.70
2018-07-26T10:49:21.274Z,42.60
2018-07-26T10:51:50.525Z,41.70
2018-07-26T10:54:19.883Z,40.30
2018-07-26T10:56:49.207Z,41.20
2018-07-26T10:59:18.471Z,40.80
2018-07-26T11:01:47.701Z,40.70
2018-07-26T11:04:17.030Z,40.70
2018-07-26T11:06:46.268Z,39.90
2018-07-26T11:09:15.552Z,38.90
2018-07-26T11:11:45.356Z,38.90
2018-07-26T11:14:17.088Z,38.60
2018-07-26T11:16:46.381Z,39.50
2018-07-26T11:19:15.696Z,39.60
2018-07-26T11:21:45.185Z,39.20
2018-07-26T11:24:14.542Z,38.50
2018-07-26T11:26:44.143Z,39.60
2018-07-26T11:29:13.651Z,38.50
2018-07-26T11:31:43.315Z,37.80
2018-07-26T11:34:13.092Z,38.40
2018-07-26T11:36:42.661Z,38.70
2018-07-26T11:39:12.696Z,40.40
2018-07-26T11:41:43.731Z,38.10
2018-07-26T11:44:13.040Z,37.80
2018-07-26T11:46:42.995Z,36.90
2018-07-26T11:49:12.455Z,37.30
2018-07-26T11:51:41.636Z,37.00
2018-07-26T11:54:10.995Z,38.00
2018-07-26T11:56:40.483Z,37.70
2018-07-26T11:59:09.603Z,37.60
2018-07-26T12:01:39.022Z,39.00
2018-07-26T12:04:08.479Z,38.20
2018-07-26T12:06:37.751Z,38.00
2018-07-26T12:09:11.463Z,37.60
2018-07-26T12:11:41.106Z,38.50
2018-07-26T12:14:10.596Z,39.90
2018-07-26T12:16:39.775Z,38.80
2018-07-26T12:19:09.405Z,38.10
2018-07-26T12:21:38.786Z,38.40
2018-07-26T12:24:08.116Z,38.70
2018-07-26T12:26:37.589Z,39.60
2018-07-26T12:29:06.812Z,40.10
2018-07-26T12:31:36.058Z,39.60
2018-07-26T12:34:06.022Z,38.50
2018-07-26T12:36:35.328Z,39.30
2018-07-26T12:39:08.088Z,38.30
2018-07-26T12:41:37.548Z,40.20
2018-07-26T12:44:07.236Z,40.30
2018-07-26T12:46:36.619Z,38.70
2018-07-26T12:49:06.231Z,39.90
2018-07-26T12:51:35.597Z,39.40
2018-07-26T12:54:04.947Z,39.70
2018-07-26T12:56:34.504Z,39.40
2018-07-26T12:59:04.635Z,39.30
2018-07-26T13:01:33.932Z,39.20
2018-07-26T13:04:03.177Z,39.00
2018-07-26T13:06:32.469Z,39.70
2018-07-26T13:09:02.003Z,39.50
2018-07-26T13:11:31.396Z,38.90
2018-07-26T13:14:00.776Z,39.80
2018-07-26T13:16:30.009Z,38.80
2018-07-26T13:18:59.446Z,38.80
2018-07-26T13:21:29.201Z,39.40
2018-07-26T13:23:58.674Z,39.50
2018-07-26T13:26:28.347Z,39.90
2018-07-26T13:28:57.764Z,40.30
2018-07-26T13:31:27.382Z,39.30
2018-07-26T13:33:57.205Z,39.60
2018-07-26T13:36:26.929Z,39.60
2018-07-26T13:38:56.520Z,40.80
2018-07-26T13:41:26.336Z,39.80
2018-07-26T13:43:56.170Z,39.60
2018-07-26T13:46:26.111Z,39.40
2018-07-26T13:48:55.672Z,40.00
2018-07-26T13:51:25.638Z,39.30
2018-07-26T13:53:55.187Z,39.30
2018-07-26T13:56:25.360Z,39.50
2018-07-26T13:58:54.681Z,38.90
2018-07-26T14:01:24.255Z,39.50
2018-07-26T14:03:53.691Z,40.30
2018-07-26T14:06:22.989Z,39.60
2018-07-26T14:08:52.637Z,39.10
2018-07-26T14:11:22.071Z,39.00
2018-07-26T14:13:51.437Z,38.80
2018-07-26T14:16:20.743Z,38.40
2018-07-26T14:18:50.072Z,38.40
2018-07-26T14:21:19.463Z,38.90
2018-07-26T14:23:52.982Z,39.10
2018-07-26T14:26:22.773Z,39.10
2018-07-26T14:28:52.510Z,39.10
2018-07-26T14:31:23.096Z,40.80
2018-07-26T14:33:52.348Z,39.00
2018-07-26T14:36:21.813Z,39.70
2018-07-26T14:38:51.273Z,40.20
2018-07-26T14:41:20.682Z,39.80
2018-07-26T14:43:50.265Z,40.60
2018-07-26T14:46:19.742Z,41.90
2018-07-26T14:48:49.326Z,39.90
2018-07-26T14:51:18.712Z,40.90
2018-07-26T14:53:50.531Z,40.20
2018-07-26T14:56:19.888Z,40.40
2018-07-26T14:58:49.933Z,40.10
2018-07-26T15:01:55.109Z,40.80
2018-07-26T15:04:35.775Z,40.10
2018-07-26T15:07:24.056Z,39.70
2018-07-26T15:09:59.236Z,40.00
2018-07-26T15:12:28.610Z,40.80
2018-07-26T15:22:20.768Z,41.00
2018-07-26T15:25:12.003Z,40.00
2018-07-26T15:34:54.858Z,40.70
2018-07-26T15:37:26.083Z,40.80
2018-07-26T15:40:08.739Z,40.90
2018-07-26T15:42:42.998Z,40.40
2018-07-26T15:45:12.898Z,40.00
2018-07-26T15:47:42.805Z,39.10
2018-07-26T15:50:12.858Z,39.30
2018-07-26T15:52:42.605Z,39.60
2018-07-26T15:55:12.426Z,40.90
2018-07-26T15:57:41.995Z,39.70
2018-07-26T16:00:12.273Z,40.10
2018-07-26T16:02:42.160Z,39.70
2018-07-26T16:05:11.642Z,40.00
2018-07-26T16:07:41.008Z,39.90
2018-07-26T16:10:10.452Z,40.00
2018-07-26T16:12:39.767Z,39.40
2018-07-26T16:15:10.652Z,40.20
2018-07-26T16:17:40.390Z,39.10
2018-07-26T16:20:10.825Z,39.50
2018-07-26T16:22:40.351Z,40.10
2018-07-26T16:25:11.001Z,41.50
2018-07-26T16:27:40.849Z,40.20
2018-07-26T16:30:12.022Z,40.60
2018-07-26T16:32:41.503Z,40.20
2018-07-26T16:35:10.793Z,39.90
2018-07-26T16:37:40.354Z,40.10
2018-07-26T16:40:09.831Z,40.00
2018-07-26T16:42:39.384Z,40.00
2018-07-26T16:45:09.085Z,39.50
2018-07-26T16:47:39.118Z,39.80
2018-07-26T16:50:08.754Z,39.40
2018-07-26T16:52:38.525Z,39.60
2018-07-26T16:55:08.926Z,40.70
2018-07-26T16:57:38.718Z,40.30
2018-07-26T17:00:09.500Z,40.00
2018-07-26T17:02:39.027Z,39.70
2018-07-26T17:05:09.160Z,40.10
2018-07-26T17:07:38.777Z,40.10
2018-07-26T17:10:09.742Z,40.70
2018-07-26T17:12:39.244Z,39.70
2018-07-26T17:15:09.966Z,39.80
2018-07-26T17:17:39.716Z,40.10
2018-07-26T17:20:09.841Z,40.30
2018-07-26T17:22:39.421Z,40.40
2018-07-26T17:25:09.136Z,40.90
2018-07-26T17:27:38.909Z,40.80
2018-07-26T17:30:08.357Z,41.40
2018-07-26T17:32:38.804Z,41.30
2018-07-26T17:35:08.256Z,41.60
2018-07-26T17:37:37.542Z,42.50
2018-07-26T17:40:07.066Z,42.10
2018-07-26T17:42:36.542Z,42.20
2018-07-26T17:45:07.939Z,42.50
2018-07-26T17:47:37.476Z,42.50
2018-07-26T17:50:08.732Z,43.10
2018-07-26T17:52:38.400Z,43.00
2018-07-26T17:55:08.451Z,43.20
2018-07-26T17:57:38.639Z,43.30
2018-07-26T18:00:10.990Z,43.40
2018-07-26T18:02:40.390Z,43.80
2018-07-26T18:05:10.028Z,43.70
2018-07-26T18:07:39.416Z,43.90
2018-07-26T18:10:09.098Z,44.00
2018-07-26T18:12:38.406Z,44.00
2018-07-26T18:15:08.385Z,44.30
2018-07-26T18:17:37.936Z,44.30
2018-07-26T18:20:07.901Z,44.50
2018-07-26T18:22:37.488Z,45.10
2018-07-26T18:25:07.283Z,44.60
2018-07-26T18:27:36.635Z,44.50
2018-07-26T18:30:07.172Z,45.10
2018-07-26T18:32:36.587Z,45.50
2018-07-26T18:35:06.524Z,45.40
2018-07-26T18:37:35.825Z,45.50
2018-07-26T18:40:07.363Z,45.70
2018-07-26T18:42:36.955Z,46.20
2018-07-26T18:45:08.068Z,46.00
2018-07-26T18:47:37.717Z,46.10
2018-07-26T18:50:08.297Z,46.40
2018-07-26T18:52:37.592Z,46.70
2018-07-26T18:55:08.749Z,46.60
2018-07-26T19:00:10.923Z,47.30
2018-07-26T19:07:39.512Z,47.90
2018-07-26T19:10:10.621Z,48.60
2018-07-26T19:12:39.848Z,48.10
2018-07-26T19:15:11.535Z,48.50
2018-07-26T19:17:41.062Z,48.70
2018-07-26T19:20:12.162Z,49.00
2018-07-26T19:22:42.500Z,48.90
2018-07-26T19:25:12.765Z,49.10
2018-07-26T19:27:42.017Z,49.60
2018-07-26T19:30:13.205Z,49.90
2018-07-26T19:32:42.800Z,49.90
2018-07-26T19:35:12.494Z,50.30
2018-07-26T19:37:42.477Z,50.70
2018-07-26T19:40:12.400Z,50.80
2018-07-26T19:42:44.253Z,51.20
2018-07-26T19:45:15.567Z,51.20
2018-07-26T19:47:45.095Z,51.50
2018-07-26T19:50:14.640Z,51.80
2018-07-26T19:52:43.924Z,52.00
2018-07-26T19:55:13.669Z,52.40
2018-07-26T20:00:12.106Z,52.90
2018-07-26T20:02:41.655Z,52.90
2018-07-26T20:05:11.847Z,52.90
2018-07-26T20:07:41.803Z,53.20
2018-07-26T20:10:12.924Z,53.60
2018-07-26T20:15:11.455Z,53.50
2018-07-26T20:17:41.017Z,53.40
2018-07-26T20:20:11.744Z,54.20
2018-07-26T20:22:41.248Z,54.10
2018-07-26T20:25:10.572Z,53.90
2018-07-26T20:27:39.988Z,54.00
2018-07-26T20:30:10.688Z,54.10
2018-07-26T20:35:09.953Z,53.60
2018-07-26T20:37:39.972Z,52.90
2018-07-26T20:40:11.517Z,52.80
2018-07-26T20:42:41.420Z,52.80
2018-07-26T20:45:12.060Z,53.50
2018-07-26T20:47:41.343Z,52.50
2018-07-26T20:50:10.628Z,52.60
2018-07-26T20:52:39.873Z,52.40
2018-07-26T20:55:09.140Z,52.50
2018-07-26T20:57:39.103Z,52.20
2018-07-26T21:00:10.579Z,52.30
2018-07-26T21:02:40.148Z,52.20
2018-07-26T21:05:09.936Z,52.50
2018-07-26T21:07:39.185Z,52.50
2018-07-26T21:10:09.673Z,52.30
2018-07-26T21:12:39.121Z,52.60
2018-07-26T21:15:09.708Z,52.70
2018-07-26T21:17:39.081Z,52.90
2018-07-26T21:20:08.539Z,52.80
2018-07-26T21:22:38.212Z,53.10
2018-07-26T21:25:07.753Z,53.00
2018-07-26T21:27:37.184Z,53.40
2018-07-26T21:30:07.287Z,53.30
2018-07-26T21:32:36.842Z,53.30
2018-07-26T21:35:07.508Z,53.70
2018-07-26T21:37:36.765Z,53.90
2018-07-26T21:40:06.777Z,53.90
2018-07-26T21:45:05.774Z,54.80
2018-07-26T21:47:35.234Z,54.40
2018-07-26T21:50:05.306Z,54.60
2018-07-26T21:52:35.013Z,54.60
2018-07-26T21:55:04.962Z,55.70
2018-07-26T21:57:34.386Z,56.10
2018-07-26T22:00:06.057Z,56.90
2018-07-26T22:02:35.370Z,57.20
2018-07-26T22:05:05.138Z,58.00
2018-07-26T22:07:34.358Z,58.80
2018-07-26T22:10:03.692Z,59.10
2018-07-26T22:12:33.130Z,58.80
2018-07-26T22:15:02.381Z,59.00
2018-07-26T22:17:31.932Z,59.00
2018-07-26T22:20:01.346Z,59.10
2018-07-26T22:22:30.943Z,59.40
2018-07-26T22:25:00.515Z,59.70
2018-07-26T22:27:30.252Z,60.70
2018-07-26T22:29:59.783Z,61.60
2018-07-26T22:32:29.392Z,63.10
2018-07-26T22:34:58.737Z,63.70
2018-07-26T22:37:28.885Z,64.00
2018-07-26T22:39:58.168Z,62.30
2018-07-26T22:42:27.380Z,63.60
2018-07-26T22:44:56.643Z,62.30
2018-07-26T22:47:25.893Z,63.30
2018-07-26T22:49:55.259Z,64.20
2018-07-26T22:52:40.335Z,65.40
2018-07-26T22:55:10.062Z,66.10
2018-07-26T22:57:39.219Z,67.60
2018-07-26T23:00:08.562Z,71.20
2018-07-26T23:02:37.804Z,72.10
2018-07-26T23:05:07.090Z,74.50
2018-07-26T23:07:36.311Z,76.80
2018-07-26T23:10:07.197Z,79.00
2018-07-26T23:12:36.592Z,78.90
2018-07-26T23:15:07.757Z,81.10
2018-07-26T23:17:37.497Z,81.10
2018-07-26T23:20:07.748Z,83.60
2018-07-26T23:22:37.071Z,85.00
2018-07-26T23:25:07.370Z,86.00
2018-07-26T23:27:36.984Z,88.00
2018-07-26T23:30:08.729Z,90.30
2018-07-26T23:32:38.113Z,90.00
2018-07-26T23:35:07.999Z,90.50
2018-07-26T23:37:37.221Z,81.40
2018-07-26T23:40:08.100Z,80.20
2018-07-26T23:42:38.038Z,76.40
2018-07-26T23:45:07.853Z,76.70
2018-07-26T23:47:37.219Z,75.20
2018-07-26T23:50:06.579Z,73.10
2018-07-26T23:52:35.935Z,73.80
2018-07-26T23:55:05.512Z,73.00
2018-07-26T23:57:35.120Z,75.20
